Weather at Whitestone Airport

Public forecast

Using degrees Fahrenheit for public forecast. Weather courtesy of forecast.io.

Closest aviation weather report (METAR) to Whitestone Airport

Closest report is Omak Airport, 15.6 nm (29.0 km) S. Retrieved 2020/10/26 08:53 UTC (36 minutes ago):

KOMK 260853Z AUTO 33003KT 10SM CLR M04/M08 A3055 RMK AO2 SLP361 T10441078 56005

Closest aviation forecast (TAF) to Whitestone Airport

Closest forecast is Penticton Airport, 44.8 nm (82.9 km) N. Retrieved 2020/10/26 07:42 UTC (2 hours ago):

TAF CYYF 260641Z 2607/2619 VRB03KT P6SM BKN120 FM261200 VRB03KT P6SM SCT040 OVC080 TEMPO 2612/2619 5SM -SN BKN030 OVC060 BECMG 2613/2615 17006KT RMK NXT FCST BY 261300Z